createdAt,value
2023-05-14T00:01:43.597Z,10.73
2023-05-14T00:04:11.475Z,12.67
2023-05-14T00:06:39.372Z,13.53
2023-05-14T00:09:07.150Z,15.13
2023-05-14T00:11:36.222Z,12.93
2023-05-14T00:14:04.268Z,14.13
2023-05-14T00:16:32.354Z,12.20
2023-05-14T00:19:00.363Z,14.43
2023-05-14T00:21:28.315Z,14.50
2023-05-14T00:23:56.396Z,14.90
2023-05-14T00:26:24.276Z,14.03
2023-05-14T00:28:53.498Z,11.97
2023-05-14T00:31:21.301Z,13.13
2023-05-14T00:33:49.217Z,11.60
2023-05-14T00:36:17.089Z,11.67
2023-05-14T00:38:45.092Z,13.37
2023-05-14T00:41:13.056Z,14.67
2023-05-14T00:43:41.068Z,13.70
2023-05-14T00:46:12.394Z,14.50
2023-05-14T00:48:40.879Z,14.37
2023-05-14T00:51:08.896Z,16.47
2023-05-14T00:53:37.416Z,16.53
2023-05-14T00:56:06.902Z,16.60
2023-05-14T00:58:35.016Z,14.00
2023-05-14T01:01:03.326Z,14.77
2023-05-14T01:03:33.757Z,13.93
2023-05-14T01:06:14.535Z,13.27
2023-05-14T01:09:05.884Z,14.03
2023-05-14T01:11:42.515Z,14.33
2023-05-14T01:14:21.405Z,14.30
2023-05-14T01:16:54.893Z,12.53
2023-05-14T01:19:43.949Z,14.63
2023-05-14T01:22:14.765Z,13.67
2023-05-14T01:24:42.552Z,14.67
2023-05-14T01:27:25.596Z,13.90
2023-05-14T01:30:18.032Z,14.50
2023-05-14T01:32:51.751Z,13.67
2023-05-14T01:35:23.885Z,12.43
2023-05-14T01:37:56.689Z,14.17
2023-05-14T01:40:26.106Z,16.83
2023-05-14T01:42:56.448Z,14.00
2023-05-14T01:45:24.497Z,15.33
2023-05-14T01:47:52.848Z,15.27
2023-05-14T01:50:21.240Z,13.37
2023-05-14T01:52:51.191Z,13.57
2023-05-14T01:55:20.913Z,17.73
2023-05-14T01:57:48.709Z,18.17
2023-05-14T02:00:17.378Z,18.90
2023-05-14T02:02:45.183Z,18.57
2023-05-14T02:05:13.609Z,18.70
2023-05-14T02:07:41.533Z,19.70
2023-05-14T02:10:11.240Z,17.93
2023-05-14T02:12:40.762Z,19.67
2023-05-14T02:15:11.029Z,19.07
2023-05-14T02:17:39.098Z,19.23
2023-05-14T02:20:10.231Z,19.27
2023-05-14T02:22:38.408Z,20.33
2023-05-14T02:25:08.184Z,18.57
2023-05-14T02:27:36.180Z,19.80
2023-05-14T02:30:07.057Z,18.67
2023-05-14T02:32:34.957Z,19.27
2023-05-14T02:35:03.246Z,18.90
2023-05-14T02:37:31.351Z,20.43
2023-05-14T02:39:59.332Z,19.30
2023-05-14T02:42:27.281Z,19.87
2023-05-14T02:44:55.098Z,20.30
2023-05-14T02:47:24.484Z,20.97
2023-05-14T02:49:52.585Z,22.47
2023-05-14T02:52:21.271Z,19.23
2023-05-14T02:54:49.170Z,21.47
2023-05-14T02:57:17.038Z,22.17
2023-05-14T02:59:44.783Z,20.17
2023-05-14T03:02:32.680Z,21.47
2023-05-14T03:05:01.221Z,21.80
2023-05-14T03:07:29.139Z,21.00
2023-05-14T03:09:57.233Z,19.93
2023-05-14T03:12:25.539Z,22.40
2023-05-14T03:14:53.373Z,23.20
2023-05-14T03:17:21.281Z,23.73
2023-05-14T03:19:50.547Z,22.07
2023-05-14T03:22:18.583Z,21.60
2023-05-14T03:24:46.419Z,22.03
2023-05-14T03:27:14.391Z,21.83
2023-05-14T03:29:42.168Z,20.73
2023-05-14T03:32:10.139Z,22.37
2023-05-14T03:34:38.261Z,24.60
2023-05-14T03:37:07.400Z,22.03
2023-05-14T03:39:36.092Z,22.37
2023-05-14T03:42:06.037Z,21.10
2023-05-14T03:44:34.143Z,20.17
2023-05-14T03:47:02.000Z,22.47
2023-05-14T03:49:29.906Z,23.00
2023-05-14T03:51:59.300Z,22.30
2023-05-14T03:54:28.563Z,21.77
2023-05-14T03:56:56.343Z,20.83
2023-05-14T03:59:24.426Z,19.97
2023-05-14T04:01:52.244Z,21.17
2023-05-14T04:04:20.845Z,20.17
2023-05-14T04:06:48.705Z,18.77
2023-05-14T04:09:16.647Z,22.47
2023-05-14T04:11:46.226Z,20.30
2023-05-14T04:14:14.037Z,19.43
2023-05-14T04:16:42.340Z,20.07
2023-05-14T04:19:10.304Z,19.10
2023-05-14T04:21:38.230Z,19.47
2023-05-14T04:24:07.157Z,17.60
2023-05-14T04:26:35.305Z,18.37
2023-05-14T04:29:04.495Z,20.10
2023-05-14T04:31:32.333Z,18.07
2023-05-14T04:34:00.406Z,18.03
2023-05-14T04:36:28.166Z,19.43
2023-05-14T04:38:56.516Z,17.90
2023-05-14T04:41:24.301Z,17.60
2023-05-14T04:43:56.711Z,17.60
2023-05-14T04:46:26.572Z,20.03
2023-05-14T04:48:54.462Z,17.57
2023-05-14T04:51:22.297Z,16.17
2023-05-14T04:53:50.240Z,19.67
2023-05-14T04:56:18.040Z,18.70
2023-05-14T04:58:45.728Z,17.40
2023-05-14T05:01:13.699Z,18.27
2023-05-14T05:03:43.228Z,18.40
2023-05-14T05:06:11.265Z,18.23
2023-05-14T05:08:39.795Z,17.93
2023-05-14T05:11:07.578Z,18.80
2023-05-14T05:13:35.552Z,17.23
2023-05-14T05:16:03.758Z,18.63
2023-05-14T05:18:31.763Z,15.33
2023-05-14T05:21:00.994Z,15.00
2023-05-14T05:23:28.935Z,12.87
2023-05-14T05:25:56.849Z,13.40
2023-05-14T05:28:24.649Z,12.68
2023-05-14T05:30:52.577Z,14.07
2023-05-14T05:33:20.604Z,13.43
2023-05-14T05:35:49.973Z,13.05
2023-05-14T05:38:19.157Z,11.52
2023-05-14T05:40:47.835Z,11.82
2023-05-14T05:43:16.028Z,11.00
2023-05-14T05:45:45.906Z,11.80
2023-05-14T05:48:13.846Z,10.75
2023-05-14T05:50:42.710Z,12.10
2023-05-14T05:53:10.639Z,11.98
2023-05-14T05:55:40.968Z,12.95
2023-05-14T05:58:08.815Z,11.35
2023-05-14T06:00:36.826Z,11.52
2023-05-14T06:03:04.618Z,10.32
2023-05-14T06:05:32.538Z,12.30
2023-05-14T06:08:00.393Z,9.77
2023-05-14T06:10:28.274Z,9.50
2023-05-14T06:12:57.422Z,9.15
2023-05-14T06:15:25.321Z,8.55
2023-05-14T06:17:53.186Z,9.57
2023-05-14T06:20:21.400Z,8.80
2023-05-14T06:22:49.519Z,9.77
2023-05-14T06:25:17.594Z,9.48
2023-05-14T06:27:45.444Z,9.82
2023-05-14T06:30:16.019Z,8.45
2023-05-14T06:32:43.828Z,8.48
2023-05-14T06:35:11.719Z,10.30
2023-05-14T06:37:39.512Z,7.80
2023-05-14T06:40:08.813Z,7.47
2023-05-14T06:42:36.554Z,7.93
2023-05-14T06:45:07.540Z,8.05
2023-05-14T06:47:36.897Z,8.25
2023-05-14T06:50:05.922Z,7.75
2023-05-14T06:52:33.935Z,7.10
2023-05-14T06:55:01.752Z,7.50
2023-05-14T06:57:29.994Z,7.55
2023-05-14T06:59:57.741Z,7.15
2023-05-14T07:02:25.617Z,7.75
2023-05-14T07:04:54.852Z,8.65
2023-05-14T07:07:23.034Z,6.60
2023-05-14T07:09:50.972Z,7.05
2023-05-14T07:12:18.829Z,6.60
2023-05-14T07:14:46.812Z,7.07
2023-05-14T07:17:15.297Z,6.45
2023-05-14T07:19:43.144Z,7.10
2023-05-14T07:22:12.462Z,6.50
2023-05-14T07:24:40.384Z,7.05
2023-05-14T07:27:08.944Z,6.32
2023-05-14T07:29:36.762Z,7.03
2023-05-14T07:32:04.945Z,7.15
2023-05-14T07:34:32.787Z,7.43
2023-05-14T07:37:01.243Z,7.25
2023-05-14T07:39:30.311Z,6.90
2023-05-14T07:41:58.186Z,7.22
2023-05-14T07:44:26.050Z,8.27
2023-05-14T07:46:53.989Z,7.35
2023-05-14T07:49:21.854Z,6.78
2023-05-14T07:51:49.818Z,6.68
2023-05-14T07:54:17.722Z,5.50
2023-05-14T07:56:46.893Z,5.85
2023-05-14T07:59:14.773Z,5.43
2023-05-14T08:01:42.694Z,5.50
2023-05-14T08:04:15.156Z,7.18
2023-05-14T08:06:43.102Z,5.13
2023-05-14T08:09:10.983Z,5.07
2023-05-14T08:11:39.171Z,5.18
2023-05-14T08:14:08.350Z,5.22
2023-05-14T08:16:36.332Z,4.80
2023-05-14T08:19:04.554Z,5.53
2023-05-14T08:21:32.789Z,5.18
2023-05-14T08:24:00.731Z,6.18
2023-05-14T08:26:28.528Z,4.50
2023-05-14T08:28:56.294Z,6.68
2023-05-14T08:31:25.560Z,4.75
2023-05-14T08:33:53.331Z,4.60
2023-05-14T08:36:21.208Z,5.07
2023-05-14T08:38:50.296Z,4.82
2023-05-14T08:41:19.054Z,6.22
2023-05-14T08:44:02.239Z,3.97
2023-05-14T08:46:33.027Z,5.32
2023-05-14T08:49:14.706Z,3.88
2023-05-14T08:51:44.444Z,3.38
2023-05-14T08:54:16.896Z,3.22
2023-05-14T08:56:50.528Z,3.00
2023-05-14T08:59:19.900Z,3.28
2023-05-14T09:01:53.676Z,3.38
2023-05-14T09:04:23.606Z,4.00
2023-05-14T09:06:53.839Z,3.25
2023-05-14T09:09:23.461Z,3.40
2023-05-14T09:11:52.999Z,3.53
2023-05-14T09:14:23.096Z,3.80
2023-05-14T09:16:52.949Z,3.55
2023-05-14T09:19:21.865Z,3.95
2023-05-14T09:21:50.498Z,3.33
2023-05-14T09:24:22.919Z,3.25
2023-05-14T09:26:52.932Z,3.92
2023-05-14T09:29:20.989Z,3.83
2023-05-14T09:31:52.524Z,3.05
2023-05-14T09:34:26.525Z,2.80
2023-05-14T09:36:59.165Z,2.90
2023-05-14T09:39:28.650Z,3.03
2023-05-14T09:41:56.975Z,4.65
2023-05-14T09:44:25.627Z,2.63
2023-05-14T09:46:55.854Z,3.30
2023-05-14T09:49:23.861Z,3.63
2023-05-14T09:51:51.984Z,4.15
2023-05-14T09:54:20.103Z,4.22
2023-05-14T09:56:47.848Z,3.67
2023-05-14T09:59:15.670Z,3.45
2023-05-14T10:01:44.557Z,3.97
2023-05-14T10:04:14.921Z,3.10
2023-05-14T10:06:51.204Z,3.53
2023-05-14T10:09:26.237Z,4.07
2023-05-14T10:11:59.092Z,3.45
2023-05-14T10:14:36.061Z,4.72
2023-05-14T10:17:06.520Z,3.75
2023-05-14T10:19:40.203Z,4.13
2023-05-14T10:22:12.679Z,3.13
2023-05-14T10:24:41.536Z,3.63
2023-05-14T10:27:10.388Z,3.35
2023-05-14T10:29:38.565Z,4.60
2023-05-14T10:32:09.505Z,3.78
2023-05-14T10:34:41.531Z,3.58
2023-05-14T10:37:12.204Z,3.33
2023-05-14T10:39:43.017Z,3.20
2023-05-14T10:42:13.218Z,2.72
2023-05-14T10:44:51.080Z,3.10
2023-05-14T10:47:19.992Z,2.38
2023-05-14T10:49:49.561Z,4.00
2023-05-14T10:52:19.613Z,3.13
2023-05-14T10:54:53.080Z,3.58
2023-05-14T10:57:22.865Z,4.10
2023-05-14T10:59:54.917Z,2.80
2023-05-14T11:02:27.777Z,3.63
2023-05-14T11:05:00.594Z,3.25
2023-05-14T11:07:32.402Z,4.10
2023-05-14T11:10:04.721Z,3.10
2023-05-14T11:12:33.475Z,3.13
2023-05-14T11:15:03.896Z,4.10
2023-05-14T11:17:32.809Z,3.50
2023-05-14T11:20:02.393Z,3.33
2023-05-14T11:22:30.376Z,3.88
2023-05-14T11:24:58.276Z,3.50
2023-05-14T11:27:26.459Z,4.45
2023-05-14T11:29:55.827Z,2.80
2023-05-14T11:32:24.198Z,3.13
2023-05-14T11:34:52.132Z,3.20
2023-05-14T11:37:21.404Z,4.28
2023-05-14T11:39:52.198Z,3.38
2023-05-14T11:42:22.262Z,3.47
2023-05-14T11:44:52.018Z,4.57
2023-05-14T11:47:22.158Z,4.20
2023-05-14T11:49:50.140Z,3.00
2023-05-14T11:52:19.411Z,3.67
2023-05-14T11:54:51.933Z,3.47
2023-05-14T11:57:21.927Z,3.78
2023-05-14T11:59:57.729Z,3.72
2023-05-14T12:02:29.301Z,3.78
2023-05-14T12:04:57.805Z,2.95
2023-05-14T12:07:30.133Z,3.38
2023-05-14T12:10:03.266Z,3.90
2023-05-14T12:12:36.520Z,3.50
2023-05-14T12:15:13.291Z,3.53
2023-05-14T12:17:41.875Z,4.00
2023-05-14T12:20:12.245Z,3.63
2023-05-14T12:22:42.583Z,2.80
2023-05-14T12:25:14.128Z,3.17
2023-05-14T12:27:45.487Z,4.05
2023-05-14T12:32:45.974Z,2.88
2023-05-14T12:35:13.894Z,2.90
2023-05-14T12:37:42.534Z,3.60
2023-05-14T12:40:12.613Z,3.08
2023-05-14T12:42:40.487Z,2.88
2023-05-14T12:45:09.146Z,2.72
2023-05-14T12:47:37.734Z,4.40
2023-05-14T12:50:07.687Z,3.35
2023-05-14T12:52:39.454Z,3.60
2023-05-14T12:55:09.876Z,4.80
2023-05-14T12:57:39.764Z,6.45
2023-05-14T13:00:14.224Z,4.22
2023-05-14T13:02:43.636Z,3.00
2023-05-14T13:05:12.474Z,4.22
2023-05-14T13:07:41.312Z,4.90
2023-05-14T13:10:11.445Z,4.38
2023-05-14T13:12:41.119Z,4.05
2023-05-14T13:15:11.029Z,3.20
2023-05-14T13:17:39.063Z,2.83
2023-05-14T13:20:08.647Z,3.15
2023-05-14T13:22:36.607Z,3.13
2023-05-14T13:25:06.008Z,3.60
2023-05-14T13:27:35.774Z,3.45
2023-05-14T13:30:06.678Z,3.25
2023-05-14T13:32:34.942Z,4.32
2023-05-14T13:35:02.881Z,3.17
2023-05-14T13:37:30.861Z,2.40
2023-05-14T13:39:58.737Z,3.33
2023-05-14T13:42:27.073Z,3.78
2023-05-14T13:44:56.360Z,3.90
2023-05-14T13:47:26.336Z,2.95
2023-05-14T13:49:55.050Z,2.38
2023-05-14T13:52:23.187Z,2.72
2023-05-14T13:54:51.114Z,2.90
2023-05-14T13:57:19.317Z,4.47
2023-05-14T13:59:47.854Z,6.03
2023-05-14T14:02:16.017Z,3.83
2023-05-14T14:04:45.208Z,2.38
2023-05-14T14:07:13.045Z,2.25
2023-05-14T14:09:40.882Z,2.55
2023-05-14T14:12:09.837Z,3.30
2023-05-14T14:14:37.806Z,2.97
2023-05-14T14:17:05.681Z,2.78
2023-05-14T14:19:33.432Z,3.08
2023-05-14T14:22:02.832Z,2.92
2023-05-14T14:24:30.616Z,2.85
2023-05-14T14:26:58.504Z,4.40
2023-05-14T14:29:26.472Z,2.13
2023-05-14T14:31:54.358Z,3.15
2023-05-14T14:34:22.308Z,3.88
2023-05-14T14:36:50.157Z,2.80
2023-05-14T14:39:19.596Z,3.83
2023-05-14T14:41:48.281Z,3.50
2023-05-14T14:44:16.147Z,2.95
2023-05-14T14:46:44.110Z,4.38
2023-05-14T14:49:11.932Z,4.90
2023-05-14T14:51:40.655Z,2.90
2023-05-14T14:54:08.530Z,2.60
2023-05-14T14:56:37.985Z,4.28
2023-05-14T14:59:05.910Z,3.78
2023-05-14T15:01:33.891Z,2.97
2023-05-14T15:04:01.717Z,4.00
2023-05-14T15:06:29.569Z,2.55
2023-05-14T15:08:57.291Z,2.72
2023-05-14T15:11:25.962Z,4.05
2023-05-14T15:13:55.108Z,3.72
2023-05-14T15:16:23.114Z,3.47
2023-05-14T15:18:50.948Z,3.38
2023-05-14T15:21:18.856Z,3.33
2023-05-14T15:23:46.895Z,3.38
2023-05-14T15:26:14.779Z,3.70
2023-05-14T15:28:42.548Z,3.50
2023-05-14T15:31:11.790Z,3.72
2023-05-14T15:33:41.544Z,2.58
2023-05-14T15:36:09.541Z,4.25
2023-05-14T15:38:37.343Z,3.10
2023-05-14T15:41:05.801Z,3.47
2023-05-14T15:43:33.590Z,4.75
2023-05-14T15:46:01.597Z,4.18
2023-05-14T15:48:30.934Z,4.60
2023-05-14T15:50:59.175Z,2.55
2023-05-14T15:53:27.159Z,2.90
2023-05-14T15:55:55.139Z,4.05
2023-05-14T15:58:22.898Z,4.88
2023-05-14T16:00:50.748Z,3.85
2023-05-14T16:03:18.755Z,5.40
2023-05-14T16:05:48.510Z,3.33
2023-05-14T16:08:16.369Z,2.90
2023-05-14T16:10:44.149Z,3.85
2023-05-14T16:13:11.863Z,3.97
2023-05-14T16:15:40.123Z,3.08
2023-05-14T16:18:08.140Z,3.75
2023-05-14T16:20:36.137Z,3.97
2023-05-14T16:23:05.319Z,3.50
2023-05-14T16:25:33.261Z,3.85
2023-05-14T16:28:01.127Z,3.50
2023-05-14T16:30:28.950Z,4.65
2023-05-14T16:32:56.867Z,2.42
2023-05-14T16:35:24.752Z,3.17
2023-05-14T16:37:52.715Z,4.55
2023-05-14T16:40:23.302Z,3.33
2023-05-14T16:42:51.682Z,4.38
2023-05-14T16:45:19.596Z,3.53
2023-05-14T16:47:47.612Z,4.15
2023-05-14T16:50:15.623Z,4.43
2023-05-14T16:52:43.463Z,3.42
2023-05-14T16:55:11.398Z,2.67
2023-05-14T16:57:40.677Z,4.65
2023-05-14T17:00:10.658Z,7.15
2023-05-14T17:02:38.932Z,23.02
2023-05-14T17:05:08.536Z,4.53
2023-05-14T17:07:38.076Z,3.20
2023-05-14T17:10:07.682Z,4.40
2023-05-14T17:12:36.018Z,3.63
2023-05-14T17:15:07.757Z,3.53
2023-05-14T17:17:36.023Z,3.75
2023-05-14T17:20:08.475Z,3.28
2023-05-14T17:22:36.644Z,3.50
2023-05-14T17:25:05.545Z,3.85
2023-05-14T17:27:33.585Z,4.57
2023-05-14T17:30:01.409Z,2.97
2023-05-14T17:32:31.202Z,3.80
2023-05-14T17:34:59.334Z,2.95
2023-05-14T17:37:27.422Z,3.72
2023-05-14T17:39:55.379Z,3.92
2023-05-14T17:42:23.264Z,4.20
2023-05-14T17:44:50.973Z,3.78
2023-05-14T17:47:20.499Z,3.50
2023-05-14T17:49:50.810Z,3.45
2023-05-14T17:52:19.192Z,3.50
2023-05-14T17:54:47.003Z,4.13
2023-05-14T17:57:15.044Z,3.40
2023-05-14T17:59:42.885Z,3.58
2023-05-14T18:02:10.850Z,3.75
2023-05-14T18:04:38.627Z,3.38
2023-05-14T18:07:08.408Z,3.60
2023-05-14T18:09:36.351Z,4.95
2023-05-14T18:12:04.785Z,4.43
2023-05-14T18:14:32.561Z,3.35
2023-05-14T18:17:00.524Z,2.90
2023-05-14T18:19:28.285Z,3.67
2023-05-14T18:21:56.170Z,4.00
2023-05-14T18:24:26.105Z,4.55
2023-05-14T18:26:54.613Z,3.03
2023-05-14T18:29:22.459Z,2.70
2023-05-14T18:31:50.331Z,4.13
2023-05-14T18:34:18.084Z,6.43
2023-05-14T18:36:46.033Z,2.67
2023-05-14T18:39:13.828Z,3.72
2023-05-14T18:41:42.987Z,3.25
2023-05-14T18:44:10.757Z,4.03
2023-05-14T18:46:38.765Z,3.40
2023-05-14T18:49:06.499Z,3.30
2023-05-14T18:51:34.272Z,5.05
2023-05-14T18:54:02.054Z,3.90
2023-05-14T18:56:30.172Z,4.85
2023-05-14T18:58:59.392Z,3.85
2023-05-14T19:01:28.023Z,7.85
2023-05-14T19:03:56.188Z,3.65
2023-05-14T19:06:24.276Z,5.22
2023-05-14T19:08:53.501Z,4.72
2023-05-14T19:11:21.920Z,5.78
2023-05-14T19:13:49.989Z,5.78
2023-05-14T19:16:19.310Z,5.47
2023-05-14T19:18:47.149Z,5.88
2023-05-14T19:21:15.341Z,4.65
2023-05-14T19:23:43.524Z,6.40
2023-05-14T19:26:11.393Z,3.40
2023-05-14T19:28:39.507Z,4.43
2023-05-14T19:31:07.469Z,3.90
2023-05-14T19:33:36.636Z,4.30
2023-05-14T19:36:05.518Z,4.00
2023-05-14T19:38:34.074Z,3.58
2023-05-14T19:41:01.888Z,4.75
2023-05-14T19:43:29.883Z,4.30
2023-05-14T19:48:25.648Z,5.22
2023-05-14T19:50:54.910Z,5.55
2023-05-14T19:53:29.360Z,7.35
2023-05-14T19:55:57.544Z,5.70
2023-05-14T19:58:26.452Z,5.72
2023-05-14T20:00:56.666Z,5.85
2023-05-14T20:03:27.560Z,5.55
2023-05-14T20:05:56.894Z,4.93
2023-05-14T20:08:24.998Z,4.88
2023-05-14T20:10:53.123Z,4.93
2023-05-14T20:13:23.242Z,6.95
2023-05-14T20:15:53.285Z,4.70
2023-05-14T20:18:21.026Z,8.73
2023-05-14T20:20:49.046Z,5.15
2023-05-14T20:23:18.273Z,5.43
2023-05-14T20:25:46.476Z,5.95
2023-05-14T20:28:14.233Z,4.72
2023-05-14T20:30:42.444Z,6.13
2023-05-14T20:33:10.484Z,4.65
2023-05-14T20:35:38.370Z,5.32
2023-05-14T20:38:06.553Z,4.20
2023-05-14T20:40:36.912Z,5.30
2023-05-14T20:43:04.804Z,5.93
2023-05-14T20:45:32.791Z,5.03
2023-05-14T20:48:00.740Z,5.10
2023-05-14T20:50:28.823Z,4.30
2023-05-14T20:52:56.685Z,4.82
2023-05-14T20:55:24.724Z,5.60
2023-05-14T20:57:54.062Z,8.68
2023-05-14T21:00:21.886Z,5.68
2023-05-14T21:02:49.960Z,5.72
2023-05-14T21:05:18.434Z,5.68
2023-05-14T21:07:46.337Z,4.93
2023-05-14T21:10:14.206Z,6.38
2023-05-14T21:12:42.838Z,6.47
2023-05-14T21:15:13.363Z,8.20
2023-05-14T21:17:41.352Z,7.55
2023-05-14T21:20:13.327Z,6.85
2023-05-14T21:22:41.117Z,7.03
2023-05-14T21:25:09.833Z,6.65
2023-05-14T21:27:37.828Z,7.45
2023-05-14T21:30:07.598Z,7.65
2023-05-14T21:32:36.869Z,7.82
2023-05-14T21:35:05.737Z,10.30
2023-05-14T21:37:33.707Z,8.93
2023-05-14T21:40:01.556Z,8.52
2023-05-14T21:42:29.482Z,8.52
2023-05-14T21:44:57.234Z,7.85
2023-05-14T21:47:25.202Z,8.55
2023-05-14T21:49:54.387Z,8.05
2023-05-14T21:52:22.137Z,9.52
2023-05-14T21:54:49.921Z,7.72
2023-05-14T21:57:17.909Z,6.68
2023-05-14T21:59:45.642Z,8.10
2023-05-14T22:02:13.536Z,7.53
2023-05-14T22:04:41.443Z,7.82
2023-05-14T22:07:10.740Z,7.03
2023-05-14T22:09:38.480Z,7.28
2023-05-14T22:12:07.732Z,8.07
2023-05-14T22:14:35.750Z,6.90
2023-05-14T22:17:04.608Z,7.65
2023-05-14T22:19:33.034Z,8.68
2023-05-14T22:22:00.946Z,8.07
2023-05-14T22:24:30.114Z,7.90
2023-05-14T22:26:57.961Z,8.77
2023-05-14T22:29:25.939Z,7.88
2023-05-14T22:31:53.809Z,8.40
2023-05-14T22:34:21.727Z,9.07
2023-05-14T22:36:49.616Z,8.38
2023-05-14T22:39:17.438Z,9.40
2023-05-14T22:41:46.695Z,9.75
2023-05-14T22:44:14.568Z,9.43
2023-05-14T22:46:42.715Z,9.70
2023-05-14T22:49:10.574Z,9.60
2023-05-14T22:51:38.630Z,9.27
2023-05-14T22:54:06.837Z,10.05
2023-05-14T22:56:35.495Z,9.53
2023-05-14T22:59:04.925Z,10.43
2023-05-14T23:01:33.164Z,11.60
2023-05-14T23:04:01.047Z,9.67
2023-05-14T23:06:30.303Z,9.25
2023-05-14T23:08:58.242Z,9.27
2023-05-14T23:11:26.975Z,10.45
2023-05-14T23:13:54.793Z,8.93
2023-05-14T23:16:24.401Z,9.48
2023-05-14T23:18:52.793Z,9.60
2023-05-14T23:21:20.813Z,9.83
2023-05-14T23:23:48.642Z,10.88
2023-05-14T23:26:16.395Z,9.70
2023-05-14T23:28:44.270Z,9.63
2023-05-14T23:31:12.047Z,10.23
2023-05-14T23:33:41.395Z,10.23
2023-05-14T23:36:10.057Z,11.55
2023-05-14T23:38:38.148Z,10.80
2023-05-14T23:41:06.031Z,11.10
2023-05-14T23:43:33.902Z,12.03
2023-05-14T23:46:02.581Z,12.30
2023-05-14T23:48:31.103Z,13.30
2023-05-14T23:51:00.521Z,11.87
2023-05-14T23:53:28.282Z,12.03
2023-05-14T23:55:56.451Z,12.37
2023-05-14T23:58:24.605Z,12.83
